Time;durP1;ratioP1;P1;durP2;ratioP2;P2;SDS_P1;SDS_P2;PMS_P1;PMS_P2;Temp;Humidity;BMP_temperature;BMP_pressure;BME280_temperature;BME280_humidity;BME280_pressure;Samples;Min_cycle;Max_cycle;Signal;HPM_P1;HPM_P2
2022/09/07 00:01:00;;;;;;;19.58;4.00;;;;;;;26.44;44.52;100806.19;5096103;28;20052;-50
2022/09/07 00:03:28;;;;;;;13.73;3.95;;;;;;;26.57;44.15;100812.34;5095930;28;20024;-50
2022/09/07 00:05:56;;;;;;;15.57;3.72;;;;;;;26.50;44.34;100808.84;5095904;28;20032;-51
2022/09/07 00:08:26;;;;;;;14.93;4.65;;;;;;;26.48;44.54;100808.81;5096006;28;20027;-50
2022/09/07 00:10:56;;;;;;;14.55;4.78;;;;;;;26.45;44.29;100797.41;5095609;28;20032;-51
2022/09/07 00:13:26;;;;;;;17.10;4.50;;;;;;;26.45;44.57;100810.56;5095508;28;20040;-51
2022/09/07 00:15:55;;;;;;;19.35;4.60;;;;;;;26.46;44.11;100797.44;5095562;28;20146;-51
2022/09/07 00:18:23;;;;;;;18.33;4.93;;;;;;;26.57;44.04;100801.81;5095855;28;20445;-47
2022/09/07 00:21:11;;;;;;;19.75;5.05;;;;;;;26.53;44.04;100799.19;5095473;28;20174;-50
2022/09/07 00:23:40;;;;;;;17.27;4.95;;;;;;;26.63;43.75;100805.31;5077243;28;20103;-51
2022/09/07 00:26:11;;;;;;;17.42;4.50;;;;;;;26.63;43.97;100801.81;5095385;28;20364;-49
2022/09/07 00:28:40;;;;;;;16.75;5.03;;;;;;;26.61;43.60;100793.91;5095612;28;20028;-50
2022/09/07 00:31:16;;;;;;;21.05;5.65;;;;;;;26.52;43.97;100794.78;5095538;28;20498;-47
2022/09/07 00:33:45;;;;;;;19.63;5.05;;;;;;;26.60;43.81;100791.28;5077571;28;20024;-50
2022/09/07 00:36:13;;;;;;;17.48;4.20;;;;;;;26.56;43.78;100800.06;5095202;28;20032;-50
2022/09/07 00:38:42;;;;;;;13.43;4.47;;;;;;;26.54;44.13;100803.56;5095159;28;20031;-49
2022/09/07 00:41:11;;;;;;;16.73;4.43;;;;;;;26.59;44.08;100800.06;5094991;28;20020;-48
2022/09/07 00:43:46;;;;;;;16.38;4.70;;;;;;;26.56;43.96;100803.53;5094983;28;20116;-46
2022/09/07 00:46:18;;;;;;;16.40;4.70;;;;;;;26.52;44.03;100801.81;5077148;28;20024;-50
2022/09/07 00:49:09;;;;;;;14.63;4.18;;;;;;;26.42;44.15;100798.31;5094471;28;20073;-48
2022/09/07 00:51:37;;;;;;;18.23;4.90;;;;;;;26.48;44.20;100802.69;5087942;28;20047;-47
2022/09/07 00:54:09;;;;;;;16.85;4.97;;;;;;;26.49;44.08;100797.41;5094920;28;20383;-46
2022/09/07 00:56:40;;;;;;;13.88;4.35;;;;;;;26.54;43.80;100782.50;5094906;28;20051;-50
2022/09/07 00:59:09;;;;;;;17.60;4.75;;;;;;;26.48;44.20;100793.03;5095005;28;20024;-46
2022/09/07 01:01:39;;;;;;;17.33;4.80;;;;;;;26.43;43.91;100783.38;5077023;28;20436;-46
2022/09/07 01:04:07;;;;;;;17.83;5.10;;;;;;;26.46;44.20;100781.66;5094779;28;20067;-47
2022/09/07 01:06:37;;;;;;;14.50;3.83;;;;;;;26.51;44.06;100785.13;5094854;28;20032;-45
2022/09/07 01:09:09;;;;;;;17.67;5.78;;;;;;;26.46;44.02;100776.41;5094831;28;20031;-46
2022/09/07 01:11:38;;;;;;;12.35;4.40;;;;;;;26.64;43.70;100793.03;5094703;28;20537;-46
2022/09/07 01:14:08;;;;;;;15.65;4.20;;;;;;;26.52;43.70;100788.66;5093924;28;20546;-46
2022/09/07 01:16:52;;;;;;;15.00;4.57;;;;;;;26.45;44.26;100797.41;5094401;28;20035;-46
2022/09/07 01:23:01;;;;;;;12.52;3.58;;;;;;;26.65;43.56;100794.78;5092941;28;20046;-47
2022/09/07 01:25:45;;;;;;;15.32;4.45;;;;;;;26.70;43.46;100793.03;5076591;28;20035;-47
2022/09/07 01:28:20;;;;;;;14.02;4.85;;;;;;;26.71;43.27;100788.66;5076353;28;20542;-51
2022/09/07 01:30:57;;;;;;;14.85;3.85;;;;;;;26.61;43.42;100779.88;5076616;28;20086;-47
2022/09/07 01:34:03;;;;;;;14.73;4.40;;;;;;;26.57;43.86;100788.66;5093905;28;20054;-50
2022/09/07 01:36:46;;;;;;;13.38;4.63;;;;;;;26.43;43.81;100770.25;5090242;28;20062;-48
2022/09/07 01:39:15;;;;;;;11.35;3.38;;;;;;;26.45;44.13;100797.41;5076367;28;20543;-51
2022/09/07 01:41:47;;;;;;;19.00;4.50;;;;;;;26.33;44.46;100791.28;5076023;28;20028;-49
2022/09/07 01:44:22;;;;;;;12.23;3.88;;;;;;;26.40;44.10;100784.28;5094103;28;20020;-49
2022/09/07 01:46:53;;;;;;;16.15;5.10;;;;;;;26.43;44.16;100784.28;5075745;28;20028;-49
2022/09/07 01:49:44;;;;;;;16.05;4.05;;;;;;;26.43;44.27;100781.66;5094036;28;20024;-48
2022/09/07 01:52:37;;;;;;;16.00;4.40;;;;;;;26.41;43.96;100765.00;5093608;28;20036;-48
2022/09/07 01:55:11;;;;;;;15.05;4.00;;;;;;;26.42;44.17;100779.91;5093772;28;20027;-47
2022/09/07 01:57:49;;;;;;;11.30;3.87;;;;;;;26.49;43.84;100770.25;5076012;28;20472;-51
2022/09/07 02:00:20;;;;;;;14.13;4.25;;;;;;;26.44;44.16;100778.16;5093408;28;20028;-49
2022/09/07 02:03:10;;;;;;;17.27;4.25;;;;;;;26.39;44.37;100769.38;5093528;28;20035;-50
2022/09/07 02:05:44;;;;;;;11.27;3.55;;;;;;;26.40;44.23;100776.38;5075172;28;20443;-48
2022/09/07 02:08:17;;;;;;;17.35;4.18;;;;;;;26.41;44.33;100772.88;5093532;28;20126;-51
2022/09/07 02:11:06;;;;;;;14.38;4.50;;;;;;;26.34;44.33;100764.13;5075453;28;20067;-49
2022/09/07 02:13:35;;;;;;;17.23;4.13;;;;;;;26.38;44.48;100772.88;5068682;28;20515;-51
2022/09/07 02:16:07;;;;;;;14.85;4.28;;;;;;;26.31;44.61;100772.00;5093289;28;20089;-50
2022/09/07 02:18:39;;;;;;;15.20;4.28;;;;;;;26.31;44.38;100768.50;5075417;28;20127;-50
2022/09/07 02:21:09;;;;;;;17.27;4.60;;;;;;;26.21;44.46;100763.22;5075458;28;20019;-48
2022/09/07 02:23:41;;;;;;;9.25;3.03;;;;;;;26.35;44.35;100770.25;5075230;28;20032;-51
2022/09/07 02:26:15;;;;;;;14.23;4.45;;;;;;;26.58;43.69;100777.25;5075640;28;20092;-49
2022/09/07 02:28:44;;;;;;;12.07;3.80;;;;;;;26.46;43.94;100771.13;5075459;28;20024;-50
2022/09/07 02:31:12;;;;;;;14.50;4.18;;;;;;;26.53;43.75;100775.50;5093104;28;20028;-50
2022/09/07 02:33:42;;;;;;;12.52;3.67;;;;;;;26.43;44.11;100778.13;5093005;28;20062;-51
2022/09/07 02:36:12;;;;;;;12.80;3.67;;;;;;;26.42;44.12;100779.91;5093065;28;20028;-48
2022/09/07 02:38:41;;;;;;;13.75;4.13;;;;;;;26.46;43.96;100783.41;5092807;28;20062;-51
2022/09/07 02:41:33;;;;;;;10.48;3.15;;;;;;;26.37;43.97;100776.38;5075023;28;20042;-48
2022/09/07 02:44:03;;;;;;;11.93;3.78;;;;;;;26.40;44.03;100781.66;5088953;28;20040;-48
2022/09/07 02:46:51;;;;;;;12.00;3.38;;;;;;;26.31;44.06;100769.38;5074986;28;20475;-47
2022/09/07 02:49:27;;;;;;;11.77;3.72;;;;;;;26.32;44.21;100767.59;5082891;28;20155;-49
2022/09/07 02:52:10;;;;;;;11.10;3.15;;;;;;;26.37;44.01;100760.59;5093020;28;20486;-51
2022/09/07 02:55:02;;;;;;;10.02;3.28;;;;;;;26.48;43.70;100771.13;5074672;28;20032;-46
2022/09/07 02:57:48;;;;;;;10.88;3.17;;;;;;;26.49;43.73;100755.31;5074874;28;20043;-50
2022/09/07 03:00:19;;;;;;;11.05;3.22;;;;;;;26.48;43.76;100755.34;5092535;28;20028;-47
2022/09/07 03:03:12;;;;;;;14.63;4.32;;;;;;;26.34;43.92;100747.44;5074003;28;20554;-46
2022/09/07 03:05:45;;;;;;;16.77;3.72;;;;;;;26.28;44.08;100752.72;5085731;28;20068;-46
2022/09/07 03:08:26;;;;;;;14.70;3.67;;;;;;;26.39;44.11;100761.47;5074906;28;20070;-47
2022/09/07 03:10:55;;;;;;;12.35;3.97;;;;;;;26.37;43.94;100755.34;5074138;28;20478;-46
2022/09/07 03:13:26;;;;;;;18.42;4.70;;;;;;;26.32;44.03;100759.72;5074731;28;20102;-46
2022/09/07 03:15:55;;;;;;;14.00;4.10;;;;;;;26.33;43.99;100754.47;5074603;28;20375;-46
2022/09/07 03:18:24;;;;;;;10.85;3.88;;;;;;;26.49;43.46;100751.84;5092973;28;20028;-46
2022/09/07 03:20:53;;;;;;;13.18;3.33;;;;;;;26.49;43.66;100762.34;5092307;28;20034;-46
2022/09/07 03:23:22;;;;;;;12.55;4.22;;;;;;;26.52;43.38;100760.59;5074750;28;20024;-47
2022/09/07 03:25:50;;;;;;;12.88;3.95;;;;;;;26.39;43.53;100741.31;5074423;28;20120;-47
2022/09/07 03:28:19;;;;;;;10.75;2.80;;;;;;;26.41;43.77;100756.22;5092532;28;20012;-51
2022/09/07 03:30:47;;;;;;;11.10;3.28;;;;;;;26.53;43.40;100749.19;5074340;28;20479;-50
2022/09/07 03:33:16;;;;;;;12.95;2.90;;;;;;;26.43;43.65;100751.81;5092411;28;20020;-50
2022/09/07 03:35:46;;;;;;;13.25;3.38;;;;;;;26.30;44.07;100758.88;5092152;28;20054;-50
2022/09/07 03:38:15;;;;;;;9.18;3.20;;;;;;;26.31;44.02;100743.06;5074379;28;20012;-50
2022/09/07 03:40:43;;;;;;;11.45;3.05;;;;;;;26.27;43.96;100743.94;5092363;28;20099;-50
2022/09/07 03:43:12;;;;;;;12.10;2.72;;;;;;;26.22;44.04;100738.69;5091834;28;20387;-51
2022/09/07 03:45:40;;;;;;;11.05;3.05;;;;;;;26.27;44.01;100750.97;5092273;28;20032;-47
2022/09/07 03:48:09;;;;;;;10.63;4.22;;;;;;;26.26;44.00;100757.09;5091922;28;20081;-48
2022/09/07 03:50:37;;;;;;;10.73;2.83;;;;;;;26.25;44.08;100748.31;5092254;28;20462;-49
2022/09/07 03:53:06;;;;;;;10.80;3.15;;;;;;;26.31;43.85;100750.97;5092242;28;20445;-51
2022/09/07 03:55:34;;;;;;;8.32;2.33;;;;;;;26.31;43.85;100752.75;5092283;28;20394;-49
2022/09/07 03:58:04;;;;;;;11.38;3.03;;;;;;;26.32;43.71;100742.19;5091936;28;20058;-50
2022/09/07 04:00:32;;;;;;;9.23;2.28;;;;;;;26.24;43.81;100741.31;5092139;28;20036;-51
2022/09/07 04:03:01;;;;;;;7.13;2.35;;;;;;;26.26;43.70;100743.97;5091698;28;20486;-50
2022/09/07 04:05:29;;;;;;;12.45;3.05;;;;;;;26.27;43.96;100746.56;5074460;28;20103;-46
2022/09/07 04:07:58;;;;;;;10.20;2.88;;;;;;;26.30;43.75;100749.22;5092146;28;20023;-46
2022/09/07 04:10:27;;;;;;;10.13;3.15;;;;;;;26.27;43.76;100746.56;5091636;28;20487;-47
2022/09/07 04:12:55;;;;;;;7.95;2.58;;;;;;;26.21;43.88;100746.59;5091988;28;20048;-47
2022/09/07 04:15:24;;;;;;;8.75;2.65;;;;;;;26.19;43.94;100746.59;5091686;28;20677;-51
2022/09/07 04:17:52;;;;;;;10.32;2.90;;;;;;;26.27;43.91;100754.47;5091920;28;20082;-47
2022/09/07 04:20:21;;;;;;;12.20;3.28;;;;;;;26.25;43.66;100758.84;5091982;28;20024;-47
2022/09/07 04:22:50;;;;;;;10.25;3.20;;;;;;;26.31;43.70;100755.38;5074791;28;20035;-47
2022/09/07 04:25:19;;;;;;;9.05;3.28;;;;;;;26.27;43.76;100748.34;5095234;28;20032;-50
2022/09/07 04:27:48;;;;;;;11.13;3.08;;;;;;;26.18;43.78;100746.59;5095588;28;20036;-47
2022/09/07 04:30:16;;;;;;;8.80;2.38;;;;;;;26.20;43.89;100750.09;5095534;28;20104;-50
2022/09/07 04:32:46;;;;;;;12.32;3.25;;;;;;;26.23;43.87;100750.97;5095591;28;20028;-49
2022/09/07 04:35:18;;;;;;;10.25;3.08;;;;;;;26.22;43.56;100750.97;5095377;28;20031;-49
2022/09/07 04:37:49;;;;;;;11.55;3.28;;;;;;;26.21;43.90;100747.47;5094851;28;20024;-49
2022/09/07 04:40:21;;;;;;;8.07;2.30;;;;;;;26.21;44.06;100743.97;5094759;28;20035;-50
2022/09/07 04:42:51;;;;;;;11.23;3.08;;;;;;;26.15;44.16;100738.69;5094670;28;20430;-45
2022/09/07 04:45:20;;;;;;;12.27;3.00;;;;;;;26.16;44.18;100737.81;5094848;28;20056;-50
2022/09/07 04:47:50;;;;;;;10.35;3.20;;;;;;;26.13;44.23;100748.34;5095117;28;20032;-48
2022/09/07 04:50:19;;;;;;;10.85;3.08;;;;;;;26.15;44.18;100747.44;5094932;28;20020;-46
2022/09/07 04:52:47;;;;;;;9.35;3.28;;;;;;;26.13;44.32;100737.81;5095064;28;20035;-46
2022/09/07 04:55:16;;;;;;;14.63;3.30;;;;;;;26.08;44.21;100732.53;5094713;28;20062;-46
2022/09/07 04:57:45;;;;;;;14.82;3.85;;;;;;;26.07;44.29;100736.03;5095007;28;20055;-48
2022/09/07 05:00:13;;;;;;;11.00;2.70;;;;;;;26.05;44.27;100743.03;5094843;28;20081;-47
2022/09/07 05:02:43;;;;;;;12.68;2.97;;;;;;;26.03;44.54;100747.41;5094835;28;20035;-47
2022/09/07 05:05:12;;;;;;;8.77;2.65;;;;;;;26.02;44.49;100743.03;5094677;28;20036;-47
2022/09/07 05:07:41;;;;;;;11.85;2.80;;;;;;;26.02;44.38;100741.28;5094606;28;20024;-46
2022/09/07 05:10:10;;;;;;;17.00;3.80;;;;;;;26.08;44.36;100735.16;5094476;28;20490;-47
2022/09/07 05:12:38;;;;;;;16.05;4.25;;;;;;;26.05;44.43;100741.31;5076855;28;20028;-49
2022/09/07 05:15:07;;;;;;;13.07;3.95;;;;;;;25.94;44.64;100749.16;5094396;28;20456;-46
2022/09/07 05:17:36;;;;;;;12.30;2.92;;;;;;;25.85;44.84;100728.13;5076738;28;20035;-46
2022/09/07 05:20:05;;;;;;;17.85;3.83;;;;;;;25.93;44.90;100736.00;5076260;28;20024;-47
2022/09/07 05:22:34;;;;;;;12.52;3.67;;;;;;;26.01;44.32;100731.66;5094604;28;20028;-45
2022/09/07 05:25:03;;;;;;;11.80;3.30;;;;;;;26.01;44.29;100725.50;5094544;28;20119;-47
2022/09/07 05:27:30;;;;;;;16.27;3.80;;;;;;;26.00;44.59;100731.63;5094670;28;20020;-47
2022/09/07 05:29:58;;;;;;;13.15;3.75;;;;;;;25.98;44.65;100734.28;5094424;28;20040;-46
2022/09/07 05:32:27;;;;;;;14.80;4.18;;;;;;;25.91;44.72;100730.78;5094496;28;20032;-46
2022/09/07 05:34:57;;;;;;;14.77;3.72;;;;;;;25.95;44.62;100726.38;5094111;28;20115;-51
2022/09/07 05:37:25;;;;;;;14.75;3.63;;;;;;;26.02;44.43;100722.91;5094332;28;20028;-48
2022/09/07 05:39:55;;;;;;;11.75;3.28;;;;;;;26.10;44.40;100725.53;5094281;28;20023;-50
2022/09/07 05:42:24;;;;;;;13.32;3.67;;;;;;;26.14;44.01;100724.69;5094426;28;20082;-51
2022/09/07 05:44:51;;;;;;;11.90;3.38;;;;;;;26.12;44.14;100726.44;5093865;28;20058;-49
2022/09/07 05:47:20;;;;;;;14.25;3.63;;;;;;;26.21;44.15;100717.69;5094041;28;20067;-50
2022/09/07 05:49:49;;;;;;;12.23;3.67;;;;;;;26.17;44.21;100729.06;5094106;28;20028;-51
2022/09/07 05:52:17;;;;;;;11.98;3.20;;;;;;;26.04;44.11;100722.88;5093824;28;20032;-50
2022/09/07 05:54:46;;;;;;;14.13;2.90;;;;;;;26.06;44.35;100736.91;5094385;28;20027;-51
2022/09/07 05:57:14;;;;;;;12.73;3.38;;;;;;;26.15;44.07;100739.56;5093825;28;20106;-47
2022/09/07 05:59:43;;;;;;;16.55;4.15;;;;;;;26.04;44.62;100736.03;5093931;28;20092;-47
2022/09/07 06:02:14;;;;;;;11.10;3.53;;;;;;;26.00;44.64;100739.53;5093712;28;20028;-50
2022/09/07 06:04:42;;;;;;;15.63;4.43;;;;;;;25.98;44.72;100746.56;5094119;28;20390;-47
2022/09/07 06:07:12;;;;;;;8.40;2.80;;;;;;;25.96;44.37;100740.41;5093386;28;20463;-50
2022/09/07 06:09:41;;;;;;;14.95;3.95;;;;;;;25.96;44.53;100736.03;5093577;28;20027;-46
2022/09/07 06:12:10;;;;;;;10.20;3.17;;;;;;;26.07;44.27;100736.91;5093609;28;20032;-46
2022/09/07 06:14:38;;;;;;;13.35;3.78;;;;;;;26.17;44.02;100739.56;5093309;28;20048;-48
2022/09/07 06:17:07;;;;;;;11.10;2.83;;;;;;;26.21;44.01;100738.72;5093450;28;20028;-50
2022/09/07 06:19:35;;;;;;;10.68;3.60;;;;;;;26.18;44.16;100743.97;5093518;28;20028;-48
2022/09/07 06:22:04;;;;;;;12.35;3.08;;;;;;;26.12;44.04;100746.56;5093673;28;20028;-50
2022/09/07 06:24:32;;;;;;;14.52;3.97;;;;;;;26.14;43.91;100753.63;5093368;28;20123;-46
2022/09/07 06:27:00;;;;;;;10.07;3.63;;;;;;;26.21;43.95;100755.34;5093595;28;20062;-50
2022/09/07 06:29:29;;;;;;;11.40;3.30;;;;;;;26.20;43.74;100755.34;5093088;28;20332;-49
2022/09/07 06:31:57;;;;;;;12.63;3.28;;;;;;;26.21;43.78;100754.47;5093475;28;20114;-50
2022/09/07 06:34:25;;;;;;;13.05;3.10;;;;;;;26.18;43.95;100750.09;5093016;28;20024;-46
2022/09/07 06:36:52;;;;;;;14.15;3.22;;;;;;;26.13;44.11;100754.47;5092725;28;20024;-46
2022/09/07 06:39:20;;;;;;;12.55;3.85;;;;;;;26.19;44.06;100756.22;5093387;28;20031;-50
2022/09/07 06:41:49;;;;;;;10.20;3.20;;;;;;;26.14;44.00;100755.34;5092983;28;20028;-46
2022/09/07 06:44:18;;;;;;;8.32;2.65;;;;;;;26.16;44.20;100758.84;5093196;28;20028;-48
2022/09/07 06:46:46;;;;;;;12.80;2.80;;;;;;;26.12;44.33;100751.84;5092634;28;20024;-48
2022/09/07 06:49:15;;;;;;;13.50;3.22;;;;;;;26.16;44.29;100753.59;5092803;28;20032;-51
2022/09/07 06:51:43;;;;;;;13.00;2.50;;;;;;;26.16;44.25;100756.22;5074856;28;20471;-49
2022/09/07 06:54:13;;;;;;;14.05;3.80;;;;;;;26.20;44.22;100755.34;5093006;28;20024;-47
2022/09/07 06:56:42;;;;;;;10.25;3.00;;;;;;;26.23;44.14;100750.06;5092853;28;20039;-50
2022/09/07 06:59:11;;;;;;;11.85;3.40;;;;;;;26.06;44.27;100731.66;5092872;28;20032;-50
2022/09/07 07:01:39;;;;;;;8.68;3.53;;;;;;;26.17;43.91;100750.94;5092933;28;20387;-48
2022/09/07 07:04:08;;;;;;;10.15;3.45;;;;;;;26.29;44.04;100757.13;5093798;28;20512;-47
2022/09/07 07:06:37;;;;;;;16.02;3.05;;;;;;;26.27;44.07;100764.13;5093724;28;20028;-46
2022/09/07 07:09:08;;;;;;;11.00;3.25;;;;;;;26.15;44.22;100757.09;5093160;28;20089;-46
2022/09/07 07:11:37;;;;;;;9.23;2.90;;;;;;;26.24;44.02;100762.34;5093393;28;20435;-46
2022/09/07 07:14:05;;;;;;;15.10;3.20;;;;;;;26.23;43.97;100766.75;5093224;28;20048;-48
2022/09/07 07:16:37;;;;;;;9.77;2.70;;;;;;;26.17;44.25;100764.09;5093225;28;20067;-49
2022/09/07 07:19:06;;;;;;;11.95;3.20;;;;;;;26.13;44.32;100761.47;5093000;28;20035;-47
2022/09/07 07:21:34;;;;;;;11.40;3.08;;;;;;;26.24;44.20;100764.97;5093246;28;20119;-45
2022/09/07 07:24:04;;;;;;;9.73;2.85;;;;;;;26.29;43.99;100760.59;5093401;28;20035;-46
2022/09/07 07:26:32;;;;;;;13.02;3.50;;;;;;;26.23;44.14;100766.75;5093292;28;20021;-46
2022/09/07 07:29:01;;;;;;;10.25;2.85;;;;;;;26.11;44.67;100756.22;5092716;28;20066;-49
2022/09/07 07:31:31;;;;;;;11.80;3.08;;;;;;;26.17;44.25;100761.47;5093129;28;20391;-49
2022/09/07 07:33:59;;;;;;;13.27;3.35;;;;;;;26.17;44.39;100760.59;5093077;28;20481;-49
2022/09/07 07:36:29;;;;;;;20.48;5.18;;;;;;;26.21;44.30;100755.34;5093221;28;20028;-50
2022/09/07 07:38:58;;;;;;;13.48;3.05;;;;;;;26.31;44.09;100769.38;5093164;28;20073;-50
2022/09/07 07:41:30;;;;;;;13.20;3.40;;;;;;;26.24;44.35;100757.09;5093327;28;20085;-50
2022/09/07 07:43:59;;;;;;;15.95;3.92;;;;;;;26.24;44.21;100762.34;5093014;28;20035;-48
2022/09/07 07:46:29;;;;;;;9.85;3.03;;;;;;;26.22;44.09;100753.63;5093397;28;20043;-50
2022/09/07 07:48:57;;;;;;;10.20;2.80;;;;;;;26.23;44.00;100750.97;5092960;28;20063;-55
2022/09/07 07:51:26;;;;;;;14.77;4.20;;;;;;;26.16;44.18;100753.59;5075083;28;20035;-49
2022/09/07 07:53:54;;;;;;;10.77;3.47;;;;;;;26.17;44.41;100743.06;5092848;28;20464;-49
2022/09/07 07:56:23;;;;;;;12.38;2.95;;;;;;;26.18;44.31;100746.59;5075163;28;20501;-53
2022/09/07 07:58:51;;;;;;;17.50;3.50;;;;;;;26.17;44.46;100745.69;5096572;28;20085;-51
2022/09/07 08:01:19;;;;;;;19.90;4.10;;;;;;;26.19;44.46;100749.22;5096422;28;20390;-51
2022/09/07 08:03:48;;;;;;;10.43;3.45;;;;;;;26.21;44.44;100746.59;5096977;28;20055;-50
2022/09/07 08:06:18;;;;;;;15.23;3.75;;;;;;;26.25;44.55;100750.94;5096522;28;20387;-49
2022/09/07 08:08:47;;;;;;;12.77;3.47;;;;;;;26.22;44.14;100748.34;5096760;28;20028;-51
2022/09/07 08:11:18;;;;;;;13.27;3.10;;;;;;;26.25;44.43;100745.69;5096221;28;20101;-49
2022/09/07 08:13:49;;;;;;;15.38;3.10;;;;;;;26.30;44.41;100751.84;5096313;28;20052;-51
2022/09/07 08:16:18;;;;;;;13.88;3.50;;;;;;;26.30;44.18;100743.94;5096929;28;20040;-50
2022/09/07 08:18:46;;;;;;;12.27;3.78;;;;;;;26.18;44.32;100726.41;5096298;28;20063;-51
2022/09/07 08:21:16;;;;;;;15.82;3.47;;;;;;;26.30;44.34;100740.47;5096550;28;20481;-49
2022/09/07 08:23:44;;;;;;;12.70;3.60;;;;;;;26.32;44.41;100739.56;5096612;28;20118;-49
2022/09/07 08:26:13;;;;;;;14.68;4.03;;;;;;;26.37;44.17;100750.09;5096285;28;20447;-52
2022/09/07 08:28:44;;;;;;;14.70;4.22;;;;;;;26.41;44.33;100754.47;5096350;28;20031;-53
2022/09/07 08:31:14;;;;;;;15.50;4.50;;;;;;;26.46;44.20;100759.72;5096413;28;20066;-49
2022/09/07 08:33:43;;;;;;;10.45;3.03;;;;;;;26.48;44.12;100752.72;5096127;28;20483;-51
2022/09/07 08:36:17;;;;;;;13.38;3.92;;;;;;;26.35;44.42;100754.47;5096006;28;20490;-47
2022/09/07 08:38:46;;;;;;;19.10;4.63;;;;;;;26.42;44.41;100748.34;5096529;28;20035;-50
2022/09/07 08:41:38;;;;;;;13.50;3.60;;;;;;;26.47;44.31;100746.59;5077803;28;20394;-52
2022/09/07 08:44:14;;;;;;;11.30;3.47;;;;;;;26.45;44.33;100750.06;5084897;28;20032;-49
2022/09/07 08:47:03;;;;;;;12.52;3.65;;;;;;;26.44;44.51;100754.47;5078208;28;20028;-47
2022/09/07 08:49:39;;;;;;;10.73;3.10;;;;;;;26.47;44.58;100753.59;5078114;28;20031;-50
2022/09/07 08:52:23;;;;;;;10.45;3.05;;;;;;;26.51;44.35;100752.72;5095864;28;20107;-50
2022/09/07 08:55:14;;;;;;;13.23;3.65;;;;;;;26.48;44.25;100748.31;5095305;28;20102;-47
2022/09/07 08:57:48;;;;;;;14.98;4.35;;;;;;;26.49;44.50;100744.81;5096010;28;20429;-50
2022/09/07 09:00:18;;;;;;;17.75;3.50;;;;;;;26.54;44.57;100745.69;5077685;28;20028;-47
2022/09/07 09:02:46;;;;;;;14.23;3.38;;;;;;;26.39;44.64;100735.19;5077251;28;20432;-46
2022/09/07 09:05:40;;;;;;;10.90;3.15;;;;;;;26.44;44.67;100753.59;5095342;28;20032;-47
2022/09/07 09:08:30;;;;;;;21.73;3.60;;;;;;;26.44;44.77;100751.84;5069338;28;20085;-50
2022/09/07 09:11:21;;;;;;;11.35;3.40;;;;;;;26.48;44.57;100757.97;5102761;28;20028;-49
2022/09/07 09:14:04;;;;;;;12.57;3.40;;;;;;;26.42;44.67;100752.69;5103310;28;20052;-49
2022/09/07 09:16:57;;;;;;;15.40;3.47;;;;;;;26.47;44.76;100757.09;5087627;28;20035;-47
2022/09/07 09:19:47;;;;;;;14.25;3.95;;;;;;;26.52;44.65;100751.84;5100819;28;20406;-50
2022/09/07 09:22:19;;;;;;;15.15;4.07;;;;;;;26.54;44.55;100742.19;5080823;28;20078;-49
2022/09/07 09:25:04;;;;;;;13.10;3.30;;;;;;;26.47;44.67;100740.44;5103270;28;20501;-49
2022/09/07 09:27:32;;;;;;;16.05;4.30;;;;;;;26.49;44.69;100743.94;5076523;28;20728;-50
2022/09/07 09:29:59;;;;;;;14.90;4.32;;;;;;;26.46;44.53;100736.94;5090202;28;20024;-47
2022/09/07 09:32:48;;;;;;;10.93;3.38;;;;;;;26.54;44.53;100742.19;5093682;28;20036;-47
2022/09/07 09:35:25;;;;;;;15.50;4.47;;;;;;;26.51;44.58;100745.69;5065879;28;20042;-48
2022/09/07 09:37:56;;;;;;;17.33;4.03;;;;;;;26.61;44.44;100743.06;5103089;28;20039;-47
2022/09/07 09:40:27;;;;;;;9.40;3.20;;;;;;;26.58;44.13;100741.28;5103708;28;20145;-48
2022/09/07 09:43:18;;;;;;;13.00;3.40;;;;;;;26.54;44.84;100739.56;5084086;28;20105;-50
2022/09/07 09:45:48;;;;;;;15.13;4.18;;;;;;;26.60;44.58;100736.91;5095483;28;20094;-50
2022/09/07 09:48:42;;;;;;;15.50;3.75;;;;;;;26.60;44.82;100739.53;5098763;28;20517;-51
2022/09/07 09:51:16;;;;;;;15.15;4.00;;;;;;;26.64;44.71;100740.44;5099237;28;20028;-51
2022/09/07 09:53:53;;;;;;;14.27;3.22;;;;;;;26.66;44.52;100741.28;5099702;28;20508;-51
2022/09/07 09:56:21;;;;;;;15.52;3.95;;;;;;;26.64;44.45;100743.06;5080745;28;20387;-51
2022/09/07 09:58:49;;;;;;;13.13;3.72;;;;;;;26.58;44.58;100745.69;5086237;28;20403;-51
2022/09/07 10:01:32;;;;;;;13.38;3.15;;;;;;;26.58;44.78;100751.81;5101867;28;20600;-51
2022/09/07 10:04:19;;;;;;;14.30;3.40;;;;;;;26.65;44.73;100744.78;5102418;28;20073;-51
2022/09/07 10:06:53;;;;;;;14.88;4.22;;;;;;;26.69;44.33;100744.78;5075197;28;20514;-51
2022/09/07 10:09:24;;;;;;;13.02;3.58;;;;;;;26.68;44.68;100737.78;5102409;28;20028;-51
2022/09/07 10:11:57;;;;;;;15.98;4.78;;;;;;;26.73;44.49;100735.13;5086319;28;20031;-51
2022/09/07 10:14:29;;;;;;;14.48;3.75;;;;;;;26.72;44.62;100730.75;5102171;28;20054;-51
2022/09/07 10:16:58;;;;;;;18.02;3.78;;;;;;;26.71;44.64;100736.03;5084208;28;20398;-50
2022/09/07 10:19:37;;;;;;;16.20;3.50;;;;;;;26.71;44.72;100736.03;5085495;28;20482;-51
2022/09/07 10:22:25;;;;;;;12.27;3.53;;;;;;;26.73;44.52;100732.50;5102808;28;20111;-51
2022/09/07 10:24:53;;;;;;;16.67;4.15;;;;;;;26.75;44.70;100743.91;5092919;28;20039;-51
2022/09/07 10:27:36;;;;;;;13.57;4.07;;;;;;;26.77;44.59;100747.41;5084304;28;20049;-50
2022/09/07 10:30:13;;;;;;;13.10;4.05;;;;;;;26.77;45.04;100734.25;5103088;28;20032;-51
2022/09/07 10:32:47;;;;;;;12.50;3.95;;;;;;;26.75;44.71;100728.13;5083537;28;20108;-48
2022/09/07 10:35:24;;;;;;;14.60;3.97;;;;;;;26.78;44.76;100721.97;5102256;28;20023;-51
2022/09/07 10:38:13;;;;;;;17.75;4.38;;;;;;;26.82;44.74;100731.63;5102451;28;20035;-50
2022/09/07 10:40:45;;;;;;;12.90;3.50;;;;;;;26.82;44.61;100719.34;5098895;28;20558;-50
2022/09/07 10:43:32;;;;;;;15.95;4.00;;;;;;;26.91;44.75;100731.59;5103839;28;20034;-51
2022/09/07 10:46:29;;;;;;;20.70;4.22;;;;;;;26.84;45.03;100727.25;5094252;28;20048;-50
2022/09/07 10:48:57;;;;;;;16.10;5.00;;;;;;;26.89;45.10;100724.59;5097434;28;20031;-51
2022/09/07 10:51:36;;;;;;;18.52;5.05;;;;;;;26.90;45.02;100726.34;5100586;28;20027;-50
2022/09/07 10:54:30;;;;;;;14.60;4.60;;;;;;;26.84;44.49;100725.47;5103060;28;20045;-51
2022/09/07 10:57:06;;;;;;;15.75;4.72;;;;;;;26.89;45.00;100722.81;5087561;28;20158;-49
2022/09/07 10:59:46;;;;;;;20.27;4.85;;;;;;;26.84;45.17;100720.22;5097496;28;20020;-51
2022/09/07 11:02:18;;;;;;;15.88;4.43;;;;;;;26.80;44.99;100713.22;5092926;28;20054;-50
2022/09/07 11:05:25;;;;;;;18.23;5.05;;;;;;;26.83;44.88;100710.56;5092387;28;20119;-49
2022/09/07 11:08:15;;;;;;;17.77;4.70;;;;;;;26.85;44.88;100702.69;5080742;28;20040;-48
2022/09/07 11:11:06;;;;;;;18.08;4.55;;;;;;;26.86;44.93;100701.81;5097268;28;20040;-51
2022/09/07 11:13:37;;;;;;;15.35;4.30;;;;;;;26.87;45.26;100685.13;5070036;28;20072;-49
2022/09/07 11:16:11;;;;;;;21.73;4.57;;;;;;;26.81;45.18;100693.91;5093993;28;20047;-50
2022/09/07 11:18:59;;;;;;;22.52;5.68;;;;;;;26.78;45.32;100688.63;5069986;28;20545;-48
2022/09/07 11:21:39;;;;;;;18.52;4.65;;;;;;;26.78;45.47;100680.75;5085378;28;20028;-50
2022/09/07 11:24:12;;;;;;;24.15;5.40;;;;;;;26.81;45.20;100688.63;5077024;28;20034;-47
2022/09/07 11:26:52;;;;;;;20.27;5.00;;;;;;;26.87;45.27;100686.88;5090446;28;20542;-49
2022/09/07 11:29:24;;;;;;;18.77;4.82;;;;;;;26.88;45.19;100675.47;5076016;28;20474;-50
2022/09/07 11:31:54;;;;;;;16.25;4.95;;;;;;;26.78;45.32;100662.31;5095276;28;20121;-48
2022/09/07 11:34:26;;;;;;;19.92;5.82;;;;;;;26.82;44.97;100661.44;5097135;28;20024;-46
2022/09/07 11:37:02;;;;;;;18.83;5.38;;;;;;;26.81;45.58;100659.69;5096986;28;21227;-48
2022/09/07 11:39:51;;;;;;;17.73;5.25;;;;;;;26.82;45.63;100656.16;5078873;28;20020;-48
2022/09/07 11:42:39;;;;;;;21.08;5.72;;;;;;;26.84;45.64;100662.31;5096789;28;20066;-50
2022/09/07 11:45:35;;;;;;;20.20;5.43;;;;;;;26.80;45.62;100646.53;5084036;28;20044;-50
2022/09/07 11:48:11;;;;;;;23.42;5.70;;;;;;;26.90;45.27;100650.88;5100113;28;20131;-52